Capitol Logistics 2219


KIAD
Washington Dulles International Airport
Dulles, Virginia, US
KSDF
Louisville International Airport-Standiford Field
Louisville, Kentucky, US

Activity Log

Date Flight Route Aircraft Duration
01/28/2020 CPX2219 RNLDI4 OTTTO Q68 HVQ UNCKL MAUDD6 B763 1h 34m
01/18/2020 CPX2219 RNLDI4 OTTTO Q68 HVQ UNCKL MAUDD6 B763 1h 44m
11/18/2019 CPX2219 RNLDI4 OTTTO Q68 HVQ UNCKL MAUDD6 B763 1h 31m
03/25/2018 CPX906 RNLDI4 OTTTO Q68 HVQ UNCKL MAUDD4 B744 1h 12m

Route Details

Aircraft Information
Primary: Boeing 767-300BDSF
Backup: Boeing 757-200SF
Date Restrictions
Between:Nov 16, 2019
Dec 31, 2019
Route Data
Distance: 392nm
Sched. Duration: 1h 13m
Avg. Duration: 1h 30m (+17m)
Times Flown: 4
Recm'd Route: RNLDI4 OTTTO Q68 HVQ UNCKL MAUDD6
Planned Altitude: 32,000ft
Origin Wx: KIAD 060952Z 00000KT 10SM R01R/2600V6000FT FEW070 SCT100 09/08 A3004 RMK AO2 SLP170 T00940078
Dest. Wx: KSDF 060956Z 03004KT 10SM SCT090 12/09 A3009 RMK AO2 SLP189 T01220094
Notes: SEASONAL FLIGHT | UPS SURGE OPS CONTRACT

Financial History
Total Freight: 432,751lbs
Average Load: 108,188lbs/flt
Fuel Used: 69,177lbs
Avg. Fuel Used: 17,294lbs/flt
Fuel Expense: $87,971
Avg. Fuel Expense: $21,993
Avg. Fuel Cost: $1.26/lbs
Total Gross Income: $697,977
Pilot Pay: $646
Total Expenses: $80,243
Total Revenue: $528,401
Average Revenue: $174,494.20